Time,TemperatureF,DewpointF,PressureIn,WindDirection,WindDirectionDegrees,WindSpeedMPH,WindSpeedGustMPH,Humidity,HourlyPrecipIn,Conditions,Clouds,dailyrainin,SoftwareType,DateUTC
2014-01-26 00:22:00,15.0,8.0,29.74,WSW,239,0.0,0.0,74,0.00,,,0.04,,2014-01-26 05:22:00,
2014-01-26 00:32:00,15.0,8.0,29.74,WSW,239,0.0,0.0,74,0.00,,,0.04,,2014-01-26 05:32:00,
2014-01-26 00:52:00,15.0,9.0,29.76,WSW,253,0.0,0.0,75,0.00,,,0.04,,2014-01-26 05:52:00,
2014-01-26 01:02:00,15.0,9.0,29.76,WSW,253,0.0,0.0,75,0.00,,,0.04,,2014-01-26 06:02:00,
2014-01-26 01:11:00,14.0,8.0,29.78,West,259,0.0,0.0,76,0.00,,,0.04,,2014-01-26 06:11:00,
2014-01-26 01:12:00,15.0,9.0,29.76,WSW,253,0.0,0.0,75,0.00,,,0.04,,2014-01-26 06:12:00,
2014-01-26 01:22:00,15.0,9.0,29.76,WSW,253,0.0,0.0,75,0.00,,,0.04,,2014-01-26 06:22:00,
2014-01-26 01:43:00,14.0,8.0,29.78,West,259,0.0,0.0,76,0.00,,,0.04,,2014-01-26 06:43:00,
2014-01-26 01:52:00,14.0,8.0,29.78,West,259,0.0,0.0,76,0.00,,,0.04,,2014-01-26 06:52:00,
2014-01-26 02:02:00,14.0,8.0,29.78,West,259,0.0,0.0,76,0.00,,,0.04,,2014-01-26 07:02:00,
2014-01-26 02:53:00,13.0,11.0,29.81,WNW,302,0.0,14.0,90,0.00,,,0.04,,2014-01-26 07:53:00,
2014-01-26 03:01:00,13.0,11.0,29.81,WNW,302,0.0,14.0,90,0.00,,,0.04,,2014-01-26 08:01:00,
2014-01-26 03:22:00,13.0,7.0,29.83,SW,225,0.0,0.0,77,0.00,,,0.04,,2014-01-26 08:22:00,
2014-01-26 03:52:00,12.0,5.0,29.84,SSW,197,0.0,0.0,72,0.00,,,0.04,,2014-01-26 08:52:00,
2014-01-26 04:22:00,11.0,4.0,29.86,SSW,197,0.0,0.0,73,0.00,,,0.04,,2014-01-26 09:22:00,
2014-01-26 04:53:00,11.0,4.0,29.86,SSW,197,0.0,0.0,73,0.00,,,0.04,,2014-01-26 09:53:00,
2014-01-26 05:13:00,11.0,4.0,29.86,SSW,197,0.0,0.0,73,0.00,,,0.04,,2014-01-26 10:13:00,
2014-01-26 05:22:00,11.0,4.0,29.86,SSW,197,0.0,0.0,73,0.00,,,0.04,,2014-01-26 10:22:00,
2014-01-26 05:33:00,11.0,4.0,29.86,SSW,197,0.0,0.0,73,0.00,,,0.04,,2014-01-26 10:33:00,
2014-01-26 05:53:00,10.0,6.0,29.85,South,179,0.0,0.0,83,0.00,,,0.04,,2014-01-26 10:53:00,
2014-01-26 06:12:00,10.0,6.0,29.85,South,179,0.0,0.0,84,0.00,,,0.04,,2014-01-26 11:12:00,
2014-01-26 06:22:00,10.0,6.0,29.85,South,179,0.0,0.0,84,0.00,,,0.04,,2014-01-26 11:22:00,
2014-01-26 06:33:00,10.0,6.0,29.85,South,179,0.0,0.0,84,0.00,,,0.04,,2014-01-26 11:33:00,
2014-01-26 07:22:00,9.0,6.0,29.83,South,181,2.0,6.0,88,0.00,,,0.04,,2014-01-26 12:22:00,
2014-01-26 07:32:00,9.0,6.0,29.83,South,181,2.0,6.0,88,0.00,,,0.04,,2014-01-26 12:32:00,
2014-01-26 07:42:00,9.0,6.0,29.83,South,181,2.0,6.0,88,0.00,,,0.04,,2014-01-26 12:42:00,
2014-01-26 07:52:00,9.0,6.0,29.83,South,181,2.0,6.0,88,0.00,,,0.04,,2014-01-26 12:52:00,
2014-01-26 08:12:00,9.0,7.0,29.83,SSW,210,6.0,0.0,90,0.00,,,0.04,,2014-01-26 13:12:00,
2014-01-26 08:22:00,9.0,7.0,29.83,SSW,210,6.0,0.0,90,0.00,,,0.04,,2014-01-26 13:22:00,
2014-01-26 08:32:00,9.0,7.0,29.83,SSW,210,6.0,0.0,90,0.00,,,0.04,,2014-01-26 13:32:00,
2014-01-26 08:42:00,9.0,7.0,29.83,SSW,210,6.0,0.0,90,0.00,,,0.04,,2014-01-26 13:42:00,
2014-01-26 09:22:00,11.0,7.0,29.80,SSW,205,4.0,7.0,84,0.00,,,0.04,,2014-01-26 14:22:00,
2014-01-26 09:32:00,11.0,7.0,29.80,SSW,205,4.0,7.0,84,0.00,,,0.04,,2014-01-26 14:32:00,
2014-01-26 09:42:00,11.0,7.0,29.80,SSW,205,4.0,7.0,84,0.00,,,0.04,,2014-01-26 14:42:00,
2014-01-26 09:52:00,11.0,7.0,29.80,SSW,205,4.0,7.0,84,0.00,,,0.04,,2014-01-26 14:52:00,
2014-01-26 10:43:00,14.0,6.0,29.77,WSW,239,3.0,7.0,70,0.00,,,0.04,,2014-01-26 15:43:00,
2014-01-26 10:53:00,14.0,6.0,29.77,WSW,239,3.0,7.0,70,0.00,,,0.04,,2014-01-26 15:53:00,
2014-01-26 11:03:00,14.0,6.0,29.77,WSW,239,3.0,7.0,70,0.00,,,0.04,,2014-01-26 16:03:00,
2014-01-26 11:23:00,15.0,11.0,29.77,SSW,194,4.0,4.0,82,0.00,,,0.04,,2014-01-26 16:23:00,
2014-01-26 11:33:00,15.0,11.0,29.77,SSW,194,4.0,4.0,82,0.00,,,0.04,,2014-01-26 16:33:00,
2014-01-26 11:53:00,14.0,13.0,29.78,SSW,194,0.0,0.0,94,0.00,,,0.04,,2014-01-26 16:53:00,
2014-01-26 12:23:00,14.0,13.0,29.76,SW,215,0.0,0.0,97,0.01,,,0.04,,2014-01-26 17:23:00,
2014-01-26 12:33:00,14.0,13.0,29.76,SW,215,0.0,0.0,97,0.01,,,0.04,,2014-01-26 17:33:00,
2014-01-26 12:43:00,14.0,13.0,29.76,SW,215,0.0,0.0,97,0.01,,,0.04,,2014-01-26 17:43:00,
2014-01-26 12:52:00,14.0,13.0,29.76,SW,215,0.0,0.0,97,0.01,,,0.04,,2014-01-26 17:52:00,
2014-01-26 13:53:00,18.0,18.0,29.69,SW,221,0.0,0.0,98,0.03,,,0.04,,2014-01-26 18:53:00,
2014-01-26 14:22:00,19.0,19.0,29.65,South,187,0.0,0.0,98,0.03,,,0.04,,2014-01-26 19:22:00,
2014-01-26 14:32:00,19.0,19.0,29.65,South,187,0.0,0.0,98,0.03,,,0.04,,2014-01-26 19:32:00,
2014-01-26 14:42:00,19.0,19.0,29.65,South,187,0.0,0.0,98,0.03,,,0.04,,2014-01-26 19:42:00,
2014-01-26 14:52:00,19.0,19.0,29.65,South,187,0.0,0.0,98,0.03,,,0.04,,2014-01-26 19:52:00,
2014-01-26 16:43:00,27.0,18.0,29.62,SSW,203,8.0,9.0,69,0.00,,,0.04,,2014-01-26 21:43:00,
2014-01-26 16:54:00,27.0,18.0,29.62,SSW,203,8.0,9.0,69,0.00,,,0.04,,2014-01-26 21:54:00,
2014-01-26 17:03:00,27.0,18.0,29.62,SSW,203,8.0,9.0,69,0.00,,,0.04,,2014-01-26 22:03:00,
2014-01-26 17:13:00,27.0,18.0,29.62,SSW,203,8.0,9.0,69,0.00,,,0.04,,2014-01-26 22:13:00,
2014-01-26 18:40:00,36.0,24.0,29.64,SSW,197,8.0,8.0,62,0.00,,,0.04,,2014-01-26 23:40:00,
2014-01-26 19:12:00,36.0,24.0,29.64,SSW,197,8.0,8.0,62,0.00,,,0.04,,2014-01-27 00:12:00,
2014-01-26 19:22:00,36.0,24.0,29.64,SSW,197,8.0,8.0,62,0.00,,,0.04,,2014-01-27 00:22:00,
2014-01-26 19:32:00,36.0,24.0,29.64,SSW,197,8.0,8.0,62,0.00,,,0.04,,2014-01-27 00:32:00,
2014-01-26 20:52:00,37.0,25.0,29.63,SSW,193,0.0,0.0,61,0.00,,,0.04,,2014-01-27 01:52:00,
2014-01-26 21:02:00,37.0,25.0,29.63,SSW,193,0.0,0.0,61,0.00,,,0.04,,2014-01-27 02:02:00,
2014-01-26 21:11:00,37.0,25.0,29.63,SSW,193,0.0,0.0,61,0.00,,,0.04,,2014-01-27 02:11:00,
2014-01-26 21:22:00,37.0,25.0,29.63,SSW,193,0.0,0.0,61,0.00,,,0.04,,2014-01-27 02:22:00,